sensor_id;sensor_type;location;lat;lon;timestamp;temperature;humidity
22779;DHT22;11556;51.194;3.800;2022-07-06T00:01:47;14.80;99.90
22779;DHT22;11556;51.194;3.800;2022-07-06T00:04:12;14.80;99.90
22779;DHT22;11556;51.194;3.800;2022-07-06T00:06:38;14.90;99.90
22779;DHT22;11556;51.194;3.800;2022-07-06T00:09:05;14.90;99.90
22779;DHT22;11556;51.194;3.800;2022-07-06T00:11:31;14.80;99.90
22779;DHT22;11556;51.194;3.800;2022-07-06T00:13:56;14.80;99.90
22779;DHT22;11556;51.194;3.800;2022-07-06T00:16:23;14.80;99.90
22779;DHT22;11556;51.194;3.800;2022-07-06T00:18:49;14.70;99.90
22779;DHT22;11556;51.194;3.800;2022-07-06T00:21:14;14.60;99.90
22779;DHT22;11556;51.194;3.800;2022-07-06T00:23:40;14.50;99.90
22779;DHT22;11556;51.194;3.800;2022-07-06T00:26:06;14.30;99.90
22779;DHT22;11556;51.194;3.800;2022-07-06T00:28:31;14.30;99.90
22779;DHT22;11556;51.194;3.800;2022-07-06T00:30:57;14.30;99.90
22779;DHT22;11556;51.194;3.800;2022-07-06T00:33:23;14.30;99.90
22779;DHT22;11556;51.194;3.800;2022-07-06T00:35:48;14.20;99.90
22779;DHT22;11556;51.194;3.800;2022-07-06T00:38:14;14.20;99.90
22779;DHT22;11556;51.194;3.800;2022-07-06T00:40:40;14.20;99.90
22779;DHT22;11556;51.194;3.800;2022-07-06T00:43:05;14.30;99.90
22779;DHT22;11556;51.194;3.800;2022-07-06T00:45:31;14.30;99.90
22779;DHT22;11556;51.194;3.800;2022-07-06T00:47:56;14.20;99.90
22779;DHT22;11556;51.194;3.800;2022-07-06T00:50:23;14.20;99.90
22779;DHT22;11556;51.194;3.800;2022-07-06T00:53:23;14.10;99.90
22779;DHT22;11556;51.194;3.800;2022-07-06T00:55:42;14.20;99.90
22779;DHT22;11556;51.194;3.800;2022-07-06T00:58:09;14.30;99.90
22779;DHT22;11556;51.194;3.800;2022-07-06T01:00:35;14.40;99.90
22779;DHT22;11556;51.194;3.800;2022-07-06T01:03:01;14.50;99.90
22779;DHT22;11556;51.194;3.800;2022-07-06T01:05:27;14.50;99.90
22779;DHT22;11556;51.194;3.800;2022-07-06T01:07:53;14.60;99.90
22779;DHT22;11556;51.194;3.800;2022-07-06T01:10:20;14.50;99.90
22779;DHT22;11556;51.194;3.800;2022-07-06T01:12:47;14.40;99.90
22779;DHT22;11556;51.194;3.800;2022-07-06T01:15:19;14.30;99.90
22779;DHT22;11556;51.194;3.800;2022-07-06T01:17:46;14.30;99.90
22779;DHT22;11556;51.194;3.800;2022-07-06T01:20:17;14.30;99.90
22779;DHT22;11556;51.194;3.800;2022-07-06T01:22:44;14.30;99.90
22779;DHT22;11556;51.194;3.800;2022-07-06T01:25:10;14.20;99.90
22779;DHT22;11556;51.194;3.800;2022-07-06T01:27:38;14.10;99.90
22779;DHT22;11556;51.194;3.800;2022-07-06T01:32:34;14.10;99.90
22779;DHT22;11556;51.194;3.800;2022-07-06T01:35:00;14.00;99.90
22779;DHT22;11556;51.194;3.800;2022-07-06T01:37:26;14.00;99.90
22779;DHT22;11556;51.194;3.800;2022-07-06T01:39:52;13.90;99.90
22779;DHT22;11556;51.194;3.800;2022-07-06T01:42:18;13.80;99.90
22779;DHT22;11556;51.194;3.800;2022-07-06T01:44:44;13.80;99.90
22779;DHT22;11556;51.194;3.800;2022-07-06T01:47:10;13.80;99.90
22779;DHT22;11556;51.194;3.800;2022-07-06T01:49:36;13.90;99.90
22779;DHT22;11556;51.194;3.800;2022-07-06T01:52:02;13.90;99.90
22779;DHT22;11556;51.194;3.800;2022-07-06T01:54:28;13.90;99.90
22779;DHT22;11556;51.194;3.800;2022-07-06T01:56:54;13.90;99.90
22779;DHT22;11556;51.194;3.800;2022-07-06T01:59:20;13.90;99.90
22779;DHT22;11556;51.194;3.800;2022-07-06T02:01:45;13.90;99.90
22779;DHT22;11556;51.194;3.800;2022-07-06T02:04:11;13.90;99.90
22779;DHT22;11556;51.194;3.800;2022-07-06T02:06:36;13.70;99.90
22779;DHT22;11556;51.194;3.800;2022-07-06T02:09:03;13.70;99.90
22779;DHT22;11556;51.194;3.800;2022-07-06T02:11:29;13.60;99.90
22779;DHT22;11556;51.194;3.800;2022-07-06T02:13:56;13.60;99.90
22779;DHT22;11556;51.194;3.800;2022-07-06T02:16:21;13.50;99.90
22779;DHT22;11556;51.194;3.800;2022-07-06T02:18:47;13.40;99.90
22779;DHT22;11556;51.194;3.800;2022-07-06T02:21:12;13.40;99.90
22779;DHT22;11556;51.194;3.800;2022-07-06T02:23:39;13.40;99.90
22779;DHT22;11556;51.194;3.800;2022-07-06T02:26:04;13.40;99.90
22779;DHT22;11556;51.194;3.800;2022-07-06T02:28:30;13.50;99.90
22779;DHT22;11556;51.194;3.800;2022-07-06T02:30:57;13.50;99.90
22779;DHT22;11556;51.194;3.800;2022-07-06T02:33:23;13.50;99.90
22779;DHT22;11556;51.194;3.800;2022-07-06T02:35:48;13.40;99.90
22779;DHT22;11556;51.194;3.800;2022-07-06T02:38:14;13.40;99.90
22779;DHT22;11556;51.194;3.800;2022-07-06T02:40:40;13.40;99.90
22779;DHT22;11556;51.194;3.800;2022-07-06T02:43:05;13.40;99.90
22779;DHT22;11556;51.194;3.800;2022-07-06T02:45:31;13.50;99.90
22779;DHT22;11556;51.194;3.800;2022-07-06T02:47:58;13.50;99.90
22779;DHT22;11556;51.194;3.800;2022-07-06T02:50:24;13.40;99.90
22779;DHT22;11556;51.194;3.800;2022-07-06T02:52:50;13.40;99.90
22779;DHT22;11556;51.194;3.800;2022-07-06T02:55:16;13.30;99.90
22779;DHT22;11556;51.194;3.800;2022-07-06T02:57:41;13.40;99.90
22779;DHT22;11556;51.194;3.800;2022-07-06T03:00:08;13.30;99.90
22779;DHT22;11556;51.194;3.800;2022-07-06T03:02:35;13.30;99.90
22779;DHT22;11556;51.194;3.800;2022-07-06T03:05:00;13.30;99.90
22779;DHT22;11556;51.194;3.800;2022-07-06T03:07:26;13.30;99.90
22779;DHT22;11556;51.194;3.800;2022-07-06T03:09:52;13.20;99.90
22779;DHT22;11556;51.194;3.800;2022-07-06T03:12:19;13.20;99.90
22779;DHT22;11556;51.194;3.800;2022-07-06T03:14:44;13.20;99.90
22779;DHT22;11556;51.194;3.800;2022-07-06T03:17:11;13.20;99.90
22779;DHT22;11556;51.194;3.800;2022-07-06T03:19:37;13.20;99.90
22779;DHT22;11556;51.194;3.800;2022-07-06T03:22:03;13.20;99.90
22779;DHT22;11556;51.194;3.800;2022-07-06T03:24:28;13.20;99.90
22779;DHT22;11556;51.194;3.800;2022-07-06T03:26:54;13.30;99.90
22779;DHT22;11556;51.194;3.800;2022-07-06T03:29:20;13.40;99.90
22779;DHT22;11556;51.194;3.800;2022-07-06T03:31:46;13.50;99.90
22779;DHT22;11556;51.194;3.800;2022-07-06T03:34:12;13.50;99.90
22779;DHT22;11556;51.194;3.800;2022-07-06T03:36:37;13.40;99.90
22779;DHT22;11556;51.194;3.800;2022-07-06T03:39:03;13.40;99.90
22779;DHT22;11556;51.194;3.800;2022-07-06T03:41:29;13.40;99.90
22779;DHT22;11556;51.194;3.800;2022-07-06T03:43:55;13.50;99.90
22779;DHT22;11556;51.194;3.800;2022-07-06T03:46:21;13.50;99.90
22779;DHT22;11556;51.194;3.800;2022-07-06T03:48:46;13.50;99.90
22779;DHT22;11556;51.194;3.800;2022-07-06T03:51:12;13.60;99.90
22779;DHT22;11556;51.194;3.800;2022-07-06T03:53:38;13.90;99.90
22779;DHT22;11556;51.194;3.800;2022-07-06T03:56:04;14.00;99.90
22779;DHT22;11556;51.194;3.800;2022-07-06T03:58:48;14.00;99.90
22779;DHT22;11556;51.194;3.800;2022-07-06T04:01:13;14.00;99.90
22779;DHT22;11556;51.194;3.800;2022-07-06T04:03:40;14.00;99.90
22779;DHT22;11556;51.194;3.800;2022-07-06T04:06:06;14.10;99.90
22779;DHT22;11556;51.194;3.800;2022-07-06T04:08:32;14.20;99.90
22779;DHT22;11556;51.194;3.800;2022-07-06T04:10:59;14.20;99.90
22779;DHT22;11556;51.194;3.800;2022-07-06T04:13:24;14.40;99.90
22779;DHT22;11556;51.194;3.800;2022-07-06T04:15:53;14.60;99.90
22779;DHT22;11556;51.194;3.800;2022-07-06T04:18:18;14.60;99.90
22779;DHT22;11556;51.194;3.800;2022-07-06T04:20:44;14.70;99.90
22779;DHT22;11556;51.194;3.800;2022-07-06T04:23:10;14.70;99.90
22779;DHT22;11556;51.194;3.800;2022-07-06T04:25:36;14.90;99.90
22779;DHT22;11556;51.194;3.800;2022-07-06T04:28:02;15.00;99.90
22779;DHT22;11556;51.194;3.800;2022-07-06T04:30:28;15.10;99.90
22779;DHT22;11556;51.194;3.800;2022-07-06T04:32:54;15.10;99.90
22779;DHT22;11556;51.194;3.800;2022-07-06T04:35:21;15.20;99.90
22779;DHT22;11556;51.194;3.800;2022-07-06T04:37:47;15.30;99.90
22779;DHT22;11556;51.194;3.800;2022-07-06T04:40:13;15.40;99.90
22779;DHT22;11556;51.194;3.800;2022-07-06T04:42:39;15.40;99.90
22779;DHT22;11556;51.194;3.800;2022-07-06T04:45:05;15.40;99.90
22779;DHT22;11556;51.194;3.800;2022-07-06T04:47:31;15.60;99.90
22779;DHT22;11556;51.194;3.800;2022-07-06T04:49:57;15.80;99.90
22779;DHT22;11556;51.194;3.800;2022-07-06T04:52:22;16.10;99.90
22779;DHT22;11556;51.194;3.800;2022-07-06T04:54:48;16.50;99.90
22779;DHT22;11556;51.194;3.800;2022-07-06T04:57:14;17.30;99.90
22779;DHT22;11556;51.194;3.800;2022-07-06T04:59:39;18.50;99.90
22779;DHT22;11556;51.194;3.800;2022-07-06T05:02:05;19.60;99.90
22779;DHT22;11556;51.194;3.800;2022-07-06T05:04:31;20.60;99.90
22779;DHT22;11556;51.194;3.800;2022-07-06T05:06:57;21.90;99.90
22779;DHT22;11556;51.194;3.800;2022-07-06T05:09:22;23.30;99.90
22779;DHT22;11556;51.194;3.800;2022-07-06T05:11:48;24.70;99.70
22779;DHT22;11556;51.194;3.800;2022-07-06T05:14:13;25.90;95.90
22779;DHT22;11556;51.194;3.800;2022-07-06T05:16:39;26.90;92.30
22779;DHT22;11556;51.194;3.800;2022-07-06T05:19:05;27.50;90.40
22779;DHT22;11556;51.194;3.800;2022-07-06T05:21:30;28.00;83.90
22779;DHT22;11556;51.194;3.800;2022-07-06T05:23:56;28.30;82.00
22779;DHT22;11556;51.194;3.800;2022-07-06T05:26:21;28.60;80.20
22779;DHT22;11556;51.194;3.800;2022-07-06T05:28:47;28.80;78.10
22779;DHT22;11556;51.194;3.800;2022-07-06T05:31:14;28.50;78.40
22779;DHT22;11556;51.194;3.800;2022-07-06T05:33:39;28.20;78.40
22779;DHT22;11556;51.194;3.800;2022-07-06T05:36:05;28.10;78.30
22779;DHT22;11556;51.194;3.800;2022-07-06T05:38:31;28.20;78.70
22779;DHT22;11556;51.194;3.800;2022-07-06T05:40:57;28.60;77.10
22779;DHT22;11556;51.194;3.800;2022-07-06T05:43:23;29.20;76.00
22779;DHT22;11556;51.194;3.800;2022-07-06T05:45:48;29.80;72.70
22779;DHT22;11556;51.194;3.800;2022-07-06T05:48:14;30.20;71.50
22779;DHT22;11556;51.194;3.800;2022-07-06T05:50:58;30.30;70.50
22779;DHT22;11556;51.194;3.800;2022-07-06T05:53:24;30.90;69.40
22779;DHT22;11556;51.194;3.800;2022-07-06T05:55:49;31.10;67.70
22779;DHT22;11556;51.194;3.800;2022-07-06T05:58:15;30.50;66.60
22779;DHT22;11556;51.194;3.800;2022-07-06T06:00:41;29.80;68.80
22779;DHT22;11556;51.194;3.800;2022-07-06T06:03:06;29.60;68.10
22779;DHT22;11556;51.194;3.800;2022-07-06T06:05:32;29.20;69.80
22779;DHT22;11556;51.194;3.800;2022-07-06T06:07:58;28.90;70.40
22779;DHT22;11556;51.194;3.800;2022-07-06T06:10:23;28.80;71.00
22779;DHT22;11556;51.194;3.800;2022-07-06T06:12:49;28.80;71.80
22779;DHT22;11556;51.194;3.800;2022-07-06T06:15:15;28.40;72.30
22779;DHT22;11556;51.194;3.800;2022-07-06T06:17:41;28.20;73.90
22779;DHT22;11556;51.194;3.800;2022-07-06T06:20:09;28.10;74.30
22779;DHT22;11556;51.194;3.800;2022-07-06T06:22:57;28.20;74.20
22779;DHT22;11556;51.194;3.800;2022-07-06T06:25:31;28.50;73.80
22779;DHT22;11556;51.194;3.800;2022-07-06T06:27:57;28.80;72.40
22779;DHT22;11556;51.194;3.800;2022-07-06T06:30:23;28.90;71.40
22779;DHT22;11556;51.194;3.800;2022-07-06T06:32:49;29.10;69.30
22779;DHT22;11556;51.194;3.800;2022-07-06T06:35:15;29.60;69.50
22779;DHT22;11556;51.194;3.800;2022-07-06T06:37:41;29.80;68.30
22779;DHT22;11556;51.194;3.800;2022-07-06T06:40:07;30.00;68.60
22779;DHT22;11556;51.194;3.800;2022-07-06T06:42:36;30.10;67.90
22779;DHT22;11556;51.194;3.800;2022-07-06T06:45:03;30.30;67.30
22779;DHT22;11556;51.194;3.800;2022-07-06T06:47:29;30.60;66.90
22779;DHT22;11556;51.194;3.800;2022-07-06T06:49:55;31.30;65.40
22779;DHT22;11556;51.194;3.800;2022-07-06T06:52:21;32.60;63.70
22779;DHT22;11556;51.194;3.800;2022-07-06T06:54:49;33.60;59.80
22779;DHT22;11556;51.194;3.800;2022-07-06T06:57:14;33.90;58.10
22779;DHT22;11556;51.194;3.800;2022-07-06T06:59:40;33.90;56.80
22779;DHT22;11556;51.194;3.800;2022-07-06T07:02:06;33.30;56.80
22779;DHT22;11556;51.194;3.800;2022-07-06T07:04:32;32.80;57.20
22779;DHT22;11556;51.194;3.800;2022-07-06T07:06:57;32.90;57.90
22779;DHT22;11556;51.194;3.800;2022-07-06T07:09:24;32.80;57.50
22779;DHT22;11556;51.194;3.800;2022-07-06T07:11:50;33.10;57.90
22779;DHT22;11556;51.194;3.800;2022-07-06T07:14:16;33.40;57.70
22779;DHT22;11556;51.194;3.800;2022-07-06T07:16:42;33.70;56.00
22779;DHT22;11556;51.194;3.800;2022-07-06T07:19:07;33.90;53.80
22779;DHT22;11556;51.194;3.800;2022-07-06T07:21:33;33.90;54.70
22779;DHT22;11556;51.194;3.800;2022-07-06T07:23:58;33.90;53.70
22779;DHT22;11556;51.194;3.800;2022-07-06T07:26:24;33.90;52.60
22779;DHT22;11556;51.194;3.800;2022-07-06T07:28:50;33.30;53.50
22779;DHT22;11556;51.194;3.800;2022-07-06T07:31:15;33.00;52.90
22779;DHT22;11556;51.194;3.800;2022-07-06T07:33:41;33.10;53.80
22779;DHT22;11556;51.194;3.800;2022-07-06T07:36:07;32.90;54.30
22779;DHT22;11556;51.194;3.800;2022-07-06T07:38:33;32.50;53.90
22779;DHT22;11556;51.194;3.800;2022-07-06T07:40:58;32.10;51.40
22779;DHT22;11556;51.194;3.800;2022-07-06T07:43:24;31.60;53.00
22779;DHT22;11556;51.194;3.800;2022-07-06T07:45:50;31.10;56.10
22779;DHT22;11556;51.194;3.800;2022-07-06T07:48:16;30.70;56.90
22779;DHT22;11556;51.194;3.800;2022-07-06T07:50:42;30.10;57.30
22779;DHT22;11556;51.194;3.800;2022-07-06T07:53:07;29.80;58.70
22779;DHT22;11556;51.194;3.800;2022-07-06T07:55:33;29.30;59.80
22779;DHT22;11556;51.194;3.800;2022-07-06T07:57:59;28.20;61.10
22779;DHT22;11556;51.194;3.800;2022-07-06T08:00:25;27.90;62.70
22779;DHT22;11556;51.194;3.800;2022-07-06T08:02:52;27.70;63.30
22779;DHT22;11556;51.194;3.800;2022-07-06T08:05:17;28.60;64.70
22779;DHT22;11556;51.194;3.800;2022-07-06T08:07:44;29.20;60.40
22779;DHT22;11556;51.194;3.800;2022-07-06T08:10:10;29.40;59.60
22779;DHT22;11556;51.194;3.800;2022-07-06T08:12:36;30.40;58.00
22779;DHT22;11556;51.194;3.800;2022-07-06T08:15:03;30.80;57.30
22779;DHT22;11556;51.194;3.800;2022-07-06T08:17:29;31.90;56.40
22779;DHT22;11556;51.194;3.800;2022-07-06T08:19:55;33.00;54.20
22779;DHT22;11556;51.194;3.800;2022-07-06T08:22:21;33.10;52.90
22779;DHT22;11556;51.194;3.800;2022-07-06T08:24:46;33.10;53.50
22779;DHT22;11556;51.194;3.800;2022-07-06T08:27:12;32.70;54.10
22779;DHT22;11556;51.194;3.800;2022-07-06T08:29:38;32.10;54.50
22779;DHT22;11556;51.194;3.800;2022-07-06T08:32:04;31.40;55.30
22779;DHT22;11556;51.194;3.800;2022-07-06T08:34:30;30.70;55.80
22779;DHT22;11556;51.194;3.800;2022-07-06T08:36:56;30.40;56.80
22779;DHT22;11556;51.194;3.800;2022-07-06T08:39:21;30.40;58.40
22779;DHT22;11556;51.194;3.800;2022-07-06T08:41:48;30.70;57.60
22779;DHT22;11556;51.194;3.800;2022-07-06T08:44:15;31.60;56.40
22779;DHT22;11556;51.194;3.800;2022-07-06T08:46:41;33.10;53.60
22779;DHT22;11556;51.194;3.800;2022-07-06T08:49:07;33.90;51.20
22779;DHT22;11556;51.194;3.800;2022-07-06T08:51:37;33.70;50.80
22779;DHT22;11556;51.194;3.800;2022-07-06T08:54:04;33.50;51.40
22779;DHT22;11556;51.194;3.800;2022-07-06T08:56:30;33.50;51.00
22779;DHT22;11556;51.194;3.800;2022-07-06T08:58:55;33.30;50.60
22779;DHT22;11556;51.194;3.800;2022-07-06T09:01:21;33.30;52.80
22779;DHT22;11556;51.194;3.800;2022-07-06T09:03:49;33.30;52.50
22779;DHT22;11556;51.194;3.800;2022-07-06T09:06:23;33.00;52.40
22779;DHT22;11556;51.194;3.800;2022-07-06T09:08:50;32.50;52.80
22779;DHT22;11556;51.194;3.800;2022-07-06T09:11:17;31.70;54.00
22779;DHT22;11556;51.194;3.800;2022-07-06T09:13:43;31.40;54.30
22779;DHT22;11556;51.194;3.800;2022-07-06T09:16:14;31.10;56.30
22779;DHT22;11556;51.194;3.800;2022-07-06T09:18:43;30.90;56.30
22779;DHT22;11556;51.194;3.800;2022-07-06T09:21:09;30.70;55.00
22779;DHT22;11556;51.194;3.800;2022-07-06T09:23:36;30.40;56.40
22779;DHT22;11556;51.194;3.800;2022-07-06T09:26:03;30.70;55.90
22779;DHT22;11556;51.194;3.800;2022-07-06T09:28:41;30.60;55.80
22779;DHT22;11556;51.194;3.800;2022-07-06T09:31:07;31.10;55.30
22779;DHT22;11556;51.194;3.800;2022-07-06T09:33:33;31.40;53.50
22779;DHT22;11556;51.194;3.800;2022-07-06T09:35:59;31.00;54.30
22779;DHT22;11556;51.194;3.800;2022-07-06T09:38:27;30.50;55.00
22779;DHT22;11556;51.194;3.800;2022-07-06T09:40:54;30.00;56.70
22779;DHT22;11556;51.194;3.800;2022-07-06T09:43:21;29.70;57.90
22779;DHT22;11556;51.194;3.800;2022-07-06T09:45:54;29.60;59.50
22779;DHT22;11556;51.194;3.800;2022-07-06T09:48:25;29.60;58.70
22779;DHT22;11556;51.194;3.800;2022-07-06T09:51:01;29.50;58.30
22779;DHT22;11556;51.194;3.800;2022-07-06T09:53:35;29.50;58.10
22779;DHT22;11556;51.194;3.800;2022-07-06T09:56:00;29.40;58.20
22779;DHT22;11556;51.194;3.800;2022-07-06T09:58:27;29.70;58.00
22779;DHT22;11556;51.194;3.800;2022-07-06T10:00:53;29.90;57.80
22779;DHT22;11556;51.194;3.800;2022-07-06T10:03:19;29.90;56.20
22779;DHT22;11556;51.194;3.800;2022-07-06T10:05:46;30.00;56.10
22779;DHT22;11556;51.194;3.800;2022-07-06T10:08:14;30.20;54.90
22779;DHT22;11556;51.194;3.800;2022-07-06T10:10:41;30.00;54.80
22779;DHT22;11556;51.194;3.800;2022-07-06T10:13:08;30.30;55.20
22779;DHT22;11556;51.194;3.800;2022-07-06T10:15:38;30.30;54.50
22779;DHT22;11556;51.194;3.800;2022-07-06T10:18:06;30.00;55.60
22779;DHT22;11556;51.194;3.800;2022-07-06T10:20:37;29.80;56.80
22779;DHT22;11556;51.194;3.800;2022-07-06T10:23:04;29.70;57.30
22779;DHT22;11556;51.194;3.800;2022-07-06T10:25:32;29.60;56.00
22779;DHT22;11556;51.194;3.800;2022-07-06T10:27:58;29.60;54.90
22779;DHT22;11556;51.194;3.800;2022-07-06T10:30:25;29.20;55.90
22779;DHT22;11556;51.194;3.800;2022-07-06T10:32:52;29.70;57.10
22779;DHT22;11556;51.194;3.800;2022-07-06T10:35:20;30.10;55.60
22779;DHT22;11556;51.194;3.800;2022-07-06T10:37:46;30.20;56.90
22779;DHT22;11556;51.194;3.800;2022-07-06T10:40:35;30.40;56.60
22779;DHT22;11556;51.194;3.800;2022-07-06T10:43:20;30.70;57.40
22779;DHT22;11556;51.194;3.800;2022-07-06T10:50:41;31.40;53.20
22779;DHT22;11556;51.194;3.800;2022-07-06T10:53:12;31.40;54.20
22779;DHT22;11556;51.194;3.800;2022-07-06T10:55:40;32.30;55.40
22779;DHT22;11556;51.194;3.800;2022-07-06T10:58:06;33.70;51.30
22779;DHT22;11556;51.194;3.800;2022-07-06T11:00:51;34.50;49.40
22779;DHT22;11556;51.194;3.800;2022-07-06T11:03:33;35.00;49.20
22779;DHT22;11556;51.194;3.800;2022-07-06T11:06:10;34.70;46.40
22779;DHT22;11556;51.194;3.800;2022-07-06T11:08:57;34.30;47.20
22779;DHT22;11556;51.194;3.800;2022-07-06T11:11:37;33.50;48.20
22779;DHT22;11556;51.194;3.800;2022-07-06T11:14:08;32.50;47.50
22779;DHT22;11556;51.194;3.800;2022-07-06T11:19:17;31.10;51.20
22779;DHT22;11556;51.194;3.800;2022-07-06T11:24:33;30.70;52.30
22779;DHT22;11556;51.194;3.800;2022-07-06T11:27:00;31.00;52.10
22779;DHT22;11556;51.194;3.800;2022-07-06T11:29:27;30.90;52.00
22779;DHT22;11556;51.194;3.800;2022-07-06T11:31:58;31.80;51.40
22779;DHT22;11556;51.194;3.800;2022-07-06T11:34:30;33.20;51.70
22779;DHT22;11556;51.194;3.800;2022-07-06T11:39:22;34.60;48.10
22779;DHT22;11556;51.194;3.800;2022-07-06T11:41:48;34.50;46.10
22779;DHT22;11556;51.194;3.800;2022-07-06T11:44:13;34.70;45.90
22779;DHT22;11556;51.194;3.800;2022-07-06T11:46:40;34.70;45.80
22779;DHT22;11556;51.194;3.800;2022-07-06T11:49:08;34.60;47.70
22779;DHT22;11556;51.194;3.800;2022-07-06T11:51:42;35.90;46.60
22779;DHT22;11556;51.194;3.800;2022-07-06T11:54:12;36.20;45.20
22779;DHT22;11556;51.194;3.800;2022-07-06T11:56:44;35.70;45.00
22779;DHT22;11556;51.194;3.800;2022-07-06T11:59:10;36.60;45.10
22779;DHT22;11556;51.194;3.800;2022-07-06T12:01:36;37.60;44.90
22779;DHT22;11556;51.194;3.800;2022-07-06T12:04:07;37.10;42.80
22779;DHT22;11556;51.194;3.800;2022-07-06T12:06:33;37.20;42.80
22779;DHT22;11556;51.194;3.800;2022-07-06T12:08:59;37.40;41.50
22779;DHT22;11556;51.194;3.800;2022-07-06T12:11:34;37.30;43.10
22779;DHT22;11556;51.194;3.800;2022-07-06T12:14:16;37.90;43.00
22779;DHT22;11556;51.194;3.800;2022-07-06T12:16:42;38.40;40.90
22779;DHT22;11556;51.194;3.800;2022-07-06T12:19:07;37.50;41.00
22779;DHT22;11556;51.194;3.800;2022-07-06T12:21:34;36.10;42.90
22779;DHT22;11556;51.194;3.800;2022-07-06T12:24:00;34.50;44.90
22779;DHT22;11556;51.194;3.800;2022-07-06T12:26:28;33.00;45.70
22779;DHT22;11556;51.194;3.800;2022-07-06T12:29:03;32.70;46.90
22779;DHT22;11556;51.194;3.800;2022-07-06T12:31:38;32.90;48.80
22779;DHT22;11556;51.194;3.800;2022-07-06T12:34:11;32.80;47.80
22779;DHT22;11556;51.194;3.800;2022-07-06T12:39:23;32.30;50.10
22779;DHT22;11556;51.194;3.800;2022-07-06T12:41:50;32.20;50.10
22779;DHT22;11556;51.194;3.800;2022-07-06T12:44:19;32.70;48.80
22779;DHT22;11556;51.194;3.800;2022-07-06T12:46:45;33.30;50.80
22779;DHT22;11556;51.194;3.800;2022-07-06T12:49:22;33.80;48.30
22779;DHT22;11556;51.194;3.800;2022-07-06T12:52:14;33.30;47.70
22779;DHT22;11556;51.194;3.800;2022-07-06T12:54:50;33.30;47.00
22779;DHT22;11556;51.194;3.800;2022-07-06T12:57:21;33.10;48.10
22779;DHT22;11556;51.194;3.800;2022-07-06T12:59:57;32.60;47.40
22779;DHT22;11556;51.194;3.800;2022-07-06T13:02:30;32.20;48.40
22779;DHT22;11556;51.194;3.800;2022-07-06T13:05:03;32.50;48.00
22779;DHT22;11556;51.194;3.800;2022-07-06T13:07:31;32.80;48.00
22779;DHT22;11556;51.194;3.800;2022-07-06T13:09:57;33.50;47.60
22779;DHT22;11556;51.194;3.800;2022-07-06T13:12:23;33.90;47.10
22779;DHT22;11556;51.194;3.800;2022-07-06T13:14:50;33.60;46.90
22779;DHT22;11556;51.194;3.800;2022-07-06T13:17:16;33.30;46.10
22779;DHT22;11556;51.194;3.800;2022-07-06T13:19:42;33.00;48.60
22779;DHT22;11556;51.194;3.800;2022-07-06T13:22:07;32.60;48.70
22779;DHT22;11556;51.194;3.800;2022-07-06T13:24:33;32.40;47.90
22779;DHT22;11556;51.194;3.800;2022-07-06T13:26:59;32.40;47.40
22779;DHT22;11556;51.194;3.800;2022-07-06T13:29:25;32.10;49.40
22779;DHT22;11556;51.194;3.800;2022-07-06T13:31:50;31.90;48.70
22779;DHT22;11556;51.194;3.800;2022-07-06T13:34:16;31.40;50.30
22779;DHT22;11556;51.194;3.800;2022-07-06T13:36:42;30.70;51.80
22779;DHT22;11556;51.194;3.800;2022-07-06T13:39:08;30.40;52.00
22779;DHT22;11556;51.194;3.800;2022-07-06T13:41:35;30.10;52.50
22779;DHT22;11556;51.194;3.800;2022-07-06T13:44:00;31.00;52.90
22779;DHT22;11556;51.194;3.800;2022-07-06T13:46:30;31.80;51.90
22779;DHT22;11556;51.194;3.800;2022-07-06T13:48:59;32.10;49.80
22779;DHT22;11556;51.194;3.800;2022-07-06T13:51:25;31.50;50.20
22779;DHT22;11556;51.194;3.800;2022-07-06T13:53:52;31.60;52.40
22779;DHT22;11556;51.194;3.800;2022-07-06T13:56:20;31.70;49.90
22779;DHT22;11556;51.194;3.800;2022-07-06T13:58:46;31.50;51.50
22779;DHT22;11556;51.194;3.800;2022-07-06T14:01:12;31.00;51.70
22779;DHT22;11556;51.194;3.800;2022-07-06T14:03:38;30.20;52.50
22779;DHT22;11556;51.194;3.800;2022-07-06T14:06:06;29.70;54.70
22779;DHT22;11556;51.194;3.800;2022-07-06T14:08:34;29.20;56.80
22779;DHT22;11556;51.194;3.800;2022-07-06T14:11:00;29.30;57.60
22779;DHT22;11556;51.194;3.800;2022-07-06T14:13:26;29.50;57.20
22779;DHT22;11556;51.194;3.800;2022-07-06T14:15:53;29.50;56.50
22779;DHT22;11556;51.194;3.800;2022-07-06T14:18:19;29.50;57.60
22779;DHT22;11556;51.194;3.800;2022-07-06T14:20:49;29.50;56.70
22779;DHT22;11556;51.194;3.800;2022-07-06T14:23:15;29.70;56.50
22779;DHT22;11556;51.194;3.800;2022-07-06T14:25:42;29.80;57.90
22779;DHT22;11556;51.194;3.800;2022-07-06T14:28:09;29.80;56.80
22779;DHT22;11556;51.194;3.800;2022-07-06T14:30:36;29.90;57.20
22779;DHT22;11556;51.194;3.800;2022-07-06T14:33:03;29.80;58.30
22779;DHT22;11556;51.194;3.800;2022-07-06T14:35:33;29.80;56.70
22779;DHT22;11556;51.194;3.800;2022-07-06T14:37:59;29.50;56.60
22779;DHT22;11556;51.194;3.800;2022-07-06T14:40:24;29.00;58.20
22779;DHT22;11556;51.194;3.800;2022-07-06T14:42:50;28.80;59.00
22779;DHT22;11556;51.194;3.800;2022-07-06T14:45:16;28.70;59.40
22779;DHT22;11556;51.194;3.800;2022-07-06T14:47:41;28.60;59.30
22779;DHT22;11556;51.194;3.800;2022-07-06T14:50:07;28.50;59.90
22779;DHT22;11556;51.194;3.800;2022-07-06T14:52:33;28.10;60.40
22779;DHT22;11556;51.194;3.800;2022-07-06T14:54:58;27.90;62.30
22779;DHT22;11556;51.194;3.800;2022-07-06T14:57:25;27.40;63.60
22779;DHT22;11556;51.194;3.800;2022-07-06T14:59:51;27.30;65.30
22779;DHT22;11556;51.194;3.800;2022-07-06T15:02:16;27.60;64.60
22779;DHT22;11556;51.194;3.800;2022-07-06T15:04:43;28.00;63.30
22779;DHT22;11556;51.194;3.800;2022-07-06T15:07:09;28.50;62.40
22779;DHT22;11556;51.194;3.800;2022-07-06T15:09:34;28.70;60.70
22779;DHT22;11556;51.194;3.800;2022-07-06T15:12:00;28.90;59.10
22779;DHT22;11556;51.194;3.800;2022-07-06T15:14:28;28.80;60.20
22779;DHT22;11556;51.194;3.800;2022-07-06T15:16:53;28.70;57.20
22779;DHT22;11556;51.194;3.800;2022-07-06T15:19:19;28.70;58.40
22779;DHT22;11556;51.194;3.800;2022-07-06T15:21:45;28.60;56.90
22779;DHT22;11556;51.194;3.800;2022-07-06T15:24:11;28.50;57.90
22779;DHT22;11556;51.194;3.800;2022-07-06T15:26:36;28.50;58.10
22779;DHT22;11556;51.194;3.800;2022-07-06T15:29:02;28.60;57.20
22779;DHT22;11556;51.194;3.800;2022-07-06T15:31:31;28.50;55.00
22779;DHT22;11556;51.194;3.800;2022-07-06T15:33:57;28.50;56.80
22779;DHT22;11556;51.194;3.800;2022-07-06T15:36:23;28.50;55.60
22779;DHT22;11556;51.194;3.800;2022-07-06T15:38:50;28.50;55.80
22779;DHT22;11556;51.194;3.800;2022-07-06T15:41:16;28.50;57.00
22779;DHT22;11556;51.194;3.800;2022-07-06T15:43:41;28.60;56.50
22779;DHT22;11556;51.194;3.800;2022-07-06T15:46:07;28.60;54.20
22779;DHT22;11556;51.194;3.800;2022-07-06T15:48:32;28.60;54.10